Terminal Aerodrome Forecast
Issued by NWS

Home | Current Version | Previous Version | Text Only | Print | Product List | Glossary On
Versions: 1 2 3 4 5 6 7 8 9 10 11 12 13 14 15 16 17 18 19 20 21 22
000
FTUS46 KPDT 072320
TAFALW
TAF
KALW 072320Z 0800/0824 VRB03KT P6SM SKC
     FM080300 12005KT P6SM BKN250
     FM081200 14005KT P6SM SCT120 OVC150
     FM081900 22005KT P6SM VCSH BKN050 OVC080
     FM082200 22005KT 2SM -SN BR BKN020 OVC030=

USA.gov is the U.S. government's official web portal to all federal, state and local government web resources and services.